createdAt,value
2019-04-03T00:01:43.439Z,95.70
2019-04-03T00:04:10.874Z,95.50
2019-04-03T00:06:57.862Z,95.30
2019-04-03T00:09:25.241Z,94.90
2019-04-03T00:11:52.618Z,95.20
2019-04-03T00:14:23.035Z,95.60
2019-04-03T00:16:50.314Z,94.70
2019-04-03T00:19:18.152Z,95.20
2019-04-03T00:21:45.633Z,95.70
2019-04-03T00:24:32.477Z,95.40
2019-04-03T00:26:59.914Z,95.20
2019-04-03T00:29:27.598Z,95.70
2019-04-03T00:31:54.974Z,95.60
2019-04-03T00:34:23.523Z,95.30
2019-04-03T00:40:08.585Z,94.50
2019-04-03T00:42:38.142Z,94.50
2019-04-03T00:45:13.818Z,94.30
2019-04-03T00:47:55.386Z,94.10
2019-04-03T00:50:23.067Z,94.50
2019-04-03T00:52:50.389Z,94.20
2019-04-03T00:55:17.685Z,94.10
2019-04-03T00:57:45.230Z,94.70
2019-04-03T01:00:15.449Z,94.60
2019-04-03T01:02:42.990Z,94.40
2019-04-03T01:05:10.582Z,94.50
2019-04-03T01:07:37.963Z,94.40
2019-04-03T01:10:05.448Z,94.40
2019-04-03T01:12:32.733Z,94.40
2019-04-03T01:15:01.560Z,94.30
2019-04-03T01:17:29.262Z,94.30
2019-04-03T01:19:56.529Z,94.30
2019-04-03T01:22:24.119Z,94.50
2019-04-03T01:24:51.726Z,94.60
2019-04-03T01:27:19.029Z,94.20
2019-04-03T01:29:46.449Z,94.30
2019-04-03T01:32:34.951Z,94.20
2019-04-03T01:35:02.432Z,94.50
2019-04-03T01:37:32.408Z,94.30
2019-04-03T01:40:02.719Z,94.50
2019-04-03T01:42:30.019Z,94.10
2019-04-03T01:47:58.228Z,94.60
2019-04-03T01:50:25.280Z,94.10
2019-04-03T01:52:52.759Z,95.00
2019-04-03T01:55:20.093Z,94.90
2019-04-03T01:57:47.390Z,94.80
2019-04-03T02:00:14.688Z,95.40
2019-04-03T02:03:02.112Z,94.70
2019-04-03T02:05:29.834Z,95.20
2019-04-03T02:08:16.590Z,95.10
2019-04-03T02:10:43.875Z,94.90
2019-04-03T02:13:30.644Z,94.80
2019-04-03T02:16:17.670Z,94.80
2019-04-03T02:18:45.256Z,95.10
2019-04-03T02:21:12.537Z,95.10
2019-04-03T02:23:39.819Z,95.80
2019-04-03T02:26:07.318Z,95.30
2019-04-03T02:28:35.246Z,95.50
2019-04-03T02:31:02.703Z,95.50
2019-04-03T02:33:30.320Z,95.40
2019-04-03T02:35:57.799Z,95.50
2019-04-03T02:38:26.305Z,95.20
2019-04-03T02:40:57.174Z,95.20
2019-04-03T02:43:47.155Z,95.50
2019-04-03T02:46:18.125Z,95.60
2019-04-03T02:49:04.985Z,95.30
2019-04-03T02:51:32.393Z,95.10
2019-04-03T02:54:02.286Z,95.20
2019-04-03T02:56:31.214Z,95.40
2019-04-03T02:59:01.291Z,95.50
2019-04-03T03:01:51.733Z,95.40
2019-04-03T03:04:32.161Z,95.30
2019-04-03T03:07:05.026Z,94.80
2019-04-03T03:09:32.836Z,95.30
2019-04-03T03:12:00.259Z,95.80
2019-04-03T03:14:27.818Z,94.80
2019-04-03T03:16:55.654Z,94.90
2019-04-03T03:19:23.036Z,94.70
2019-04-03T03:21:50.328Z,94.70
2019-04-03T03:24:18.011Z,94.90
2019-04-03T03:26:45.457Z,94.90
2019-04-03T03:29:17.721Z,94.70
2019-04-03T03:32:06.348Z,94.90
2019-04-03T03:34:12.593Z,94.50
2019-04-03T03:36:41.531Z,94.70
2019-04-03T03:39:11.247Z,94.60
2019-04-03T03:41:38.715Z,94.70
2019-04-03T03:44:09.800Z,94.50
2019-04-03T03:46:55.113Z,94.60
2019-04-03T03:49:33.492Z,94.30
2019-04-03T03:52:04.021Z,94.90
2019-04-03T03:54:30.063Z,94.80
2019-04-03T03:56:57.619Z,94.70
2019-04-03T03:59:25.131Z,95.30
2019-04-03T04:01:52.846Z,94.90
2019-04-03T04:04:20.522Z,95.00
2019-04-03T04:06:47.951Z,95.10
2019-04-03T04:09:17.212Z,95.10
2019-04-03T04:11:44.409Z,94.90
2019-04-03T04:14:11.935Z,95.60
2019-04-03T04:16:39.737Z,95.60
2019-04-03T04:19:07.137Z,95.40
2019-04-03T04:21:34.403Z,94.90
2019-04-03T04:24:01.964Z,94.80
2019-04-03T04:26:50.330Z,95.00
2019-04-03T04:29:19.726Z,94.70
2019-04-03T04:31:47.298Z,94.80
2019-04-03T04:34:18.892Z,94.90
2019-04-03T04:37:06.416Z,94.70
2019-04-03T04:39:33.738Z,94.70
2019-04-03T04:42:20.600Z,94.60
2019-04-03T04:44:48.475Z,94.50
2019-04-03T04:47:15.789Z,94.70
2019-04-03T04:50:02.568Z,94.70
2019-04-03T04:52:30.028Z,94.40
2019-04-03T04:54:57.642Z,94.90
2019-04-03T04:57:25.533Z,94.50
2019-04-03T04:59:53.157Z,94.40
2019-04-03T05:02:21.289Z,94.60
2019-04-03T05:05:10.185Z,94.60
2019-04-03T05:10:36.885Z,94.40
2019-04-03T05:15:49.460Z,94.20
2019-04-03T05:18:16.817Z,94.50
2019-04-03T05:21:05.015Z,94.50
2019-04-03T05:23:32.452Z,94.40
2019-04-03T05:26:01.859Z,94.60
2019-04-03T05:28:29.199Z,94.60
2019-04-03T05:31:16.120Z,94.60
2019-04-03T05:33:43.661Z,94.40
2019-04-03T05:36:30.603Z,94.50
2019-04-03T05:38:58.225Z,94.50
2019-04-03T05:41:27.559Z,94.50
2019-04-03T05:44:14.531Z,94.90
2019-04-03T05:49:26.958Z,94.60
2019-04-03T05:51:54.617Z,94.70
2019-04-03T05:54:23.316Z,94.70
2019-04-03T05:56:51.795Z,94.60
2019-04-03T05:59:19.666Z,95.50
2019-04-03T06:02:14.962Z,95.00
2019-04-03T06:04:36.102Z,94.80
2019-04-03T06:07:05.705Z,94.80
2019-04-03T06:09:53.874Z,94.80
2019-04-03T06:12:22.110Z,94.50
2019-04-03T06:15:10.260Z,94.70
2019-04-03T06:17:39.186Z,94.80
2019-04-03T06:20:10.150Z,94.80
2019-04-03T06:22:49.893Z,95.30
2019-04-03T06:25:18.596Z,94.80
2019-04-03T06:28:05.487Z,95.20
2019-04-03T06:30:35.081Z,95.10
2019-04-03T06:33:02.676Z,95.00
2019-04-03T06:35:34.774Z,95.10
2019-04-03T06:38:01.943Z,95.60
2019-04-03T06:40:29.223Z,95.00
2019-04-03T06:42:56.546Z,95.30
2019-04-03T06:45:26.162Z,94.80
2019-04-03T06:47:53.368Z,95.20
2019-04-03T06:50:20.898Z,94.90
2019-04-03T06:52:52.563Z,95.10
2019-04-03T06:55:19.154Z,95.20
2019-04-03T06:58:00.144Z,95.00
2019-04-03T07:00:27.438Z,94.80
2019-04-03T07:02:57.762Z,95.20
2019-04-03T07:05:27.280Z,95.00
2019-04-03T07:07:54.542Z,95.30
2019-04-03T07:10:25.519Z,95.10
2019-04-03T07:12:51.282Z,94.90
2019-04-03T07:15:38.080Z,94.90
2019-04-03T07:18:06.559Z,95.10
2019-04-03T07:20:34.266Z,94.90
2019-04-03T07:23:01.629Z,95.40
2019-04-03T07:25:29.010Z,95.20
2019-04-03T07:27:56.358Z,95.40
2019-04-03T07:30:23.641Z,94.70
2019-04-03T07:32:51.247Z,95.30
2019-04-03T07:35:18.691Z,95.20
2019-04-03T07:37:46.050Z,95.00
2019-04-03T07:40:13.466Z,94.90
2019-04-03T07:42:41.055Z,95.00
2019-04-03T07:45:08.454Z,95.00
2019-04-03T07:47:35.977Z,95.60
2019-04-03T07:50:04.089Z,95.30
2019-04-03T07:52:31.578Z,95.00
2019-04-03T07:54:58.962Z,95.20
2019-04-03T07:57:26.874Z,95.10
2019-04-03T07:59:55.721Z,95.20
2019-04-03T08:02:23.178Z,95.20
2019-04-03T08:04:50.490Z,95.10
2019-04-03T08:07:17.899Z,95.20
2019-04-03T08:10:04.783Z,95.20
2019-04-03T08:12:34.549Z,94.80
2019-04-03T08:15:01.503Z,95.30
2019-04-03T08:17:29.058Z,95.20
2019-04-03T08:19:56.372Z,95.60
2019-04-03T08:22:23.741Z,95.40
2019-04-03T08:24:53.048Z,95.20
2019-04-03T08:27:22.663Z,95.50
2019-04-03T08:29:49.780Z,95.50
2019-04-03T08:32:17.339Z,95.30
2019-04-03T08:34:44.894Z,95.30
2019-04-03T08:37:12.437Z,95.40
2019-04-03T08:39:39.782Z,95.70
2019-04-03T08:42:07.114Z,95.10
2019-04-03T08:44:53.929Z,95.40
2019-04-03T08:47:21.229Z,94.90
2019-04-03T08:50:08.154Z,95.10
2019-04-03T08:52:37.140Z,95.00
2019-04-03T08:55:04.982Z,94.60
2019-04-03T08:57:32.446Z,94.50
2019-04-03T09:00:01.164Z,94.30
2019-04-03T09:02:28.825Z,94.00
2019-04-03T09:04:56.602Z,93.60
2019-04-03T09:07:24.937Z,93.30
2019-04-03T09:09:53.171Z,93.50
2019-04-03T09:12:21.007Z,93.50
2019-04-03T09:14:48.548Z,93.30
2019-04-03T09:17:35.614Z,93.10
2019-04-03T09:20:03.235Z,93.10
2019-04-03T09:22:30.511Z,93.20
2019-04-03T09:24:59.916Z,93.60
2019-04-03T09:27:27.336Z,93.70
2019-04-03T09:29:54.975Z,93.70
2019-04-03T09:32:23.424Z,93.50
2019-04-03T09:34:50.890Z,93.30
2019-04-03T09:37:18.532Z,93.40
2019-04-03T09:39:46.525Z,93.20
2019-04-03T09:42:13.922Z,93.30
2019-04-03T09:45:00.700Z,93.20
2019-04-03T09:47:28.070Z,93.20
2019-04-03T09:49:55.491Z,93.00
2019-04-03T09:52:24.000Z,92.90
2019-04-03T09:54:51.710Z,92.70
2019-04-03T09:57:19.319Z,92.50
2019-04-03T09:59:46.819Z,92.60
2019-04-03T10:02:14.093Z,92.70
2019-04-03T10:04:41.361Z,92.80
2019-04-03T10:07:08.678Z,92.60
2019-04-03T10:09:38.465Z,92.10
2019-04-03T10:12:05.460Z,92.10
2019-04-03T10:14:33.070Z,92.10
2019-04-03T10:17:00.328Z,91.80
2019-04-03T10:19:27.598Z,91.90
2019-04-03T10:21:55.249Z,92.50
2019-04-03T10:24:22.631Z,92.90
2019-04-03T10:27:11.223Z,93.20
2019-04-03T10:29:38.767Z,93.10
2019-04-03T10:32:06.094Z,94.40
2019-04-03T10:34:35.680Z,94.40
2019-04-03T10:37:02.702Z,93.40
2019-04-03T10:39:30.351Z,92.40
2019-04-03T10:42:17.125Z,92.50
2019-04-03T10:44:44.459Z,91.80
2019-04-03T10:47:11.896Z,90.90
2019-04-03T10:49:39.509Z,91.70
2019-04-03T10:52:07.442Z,91.90
2019-04-03T10:54:37.404Z,91.30
2019-04-03T10:57:06.728Z,91.30
2019-04-03T10:59:37.283Z,90.30
2019-04-03T11:02:06.247Z,90.60
2019-04-03T11:04:33.999Z,88.10
2019-04-03T11:07:01.410Z,88.40
2019-04-03T11:09:28.933Z,88.40
2019-04-03T11:11:56.420Z,87.50
2019-04-03T11:14:23.834Z,88.00
2019-04-03T11:16:52.603Z,88.50
2019-04-03T11:19:20.370Z,89.10
2019-04-03T11:21:47.734Z,89.90
2019-04-03T11:24:37.718Z,90.10
2019-04-03T11:29:48.644Z,89.20
2019-04-03T11:32:16.522Z,89.50
2019-04-03T11:34:44.115Z,89.80
2019-04-03T11:37:11.710Z,89.20
2019-04-03T11:40:03.871Z,90.00
2019-04-03T11:42:29.590Z,90.20
2019-04-03T11:44:57.345Z,90.70
2019-04-03T11:47:27.896Z,90.70
2019-04-03T11:49:55.568Z,91.00
2019-04-03T11:52:23.369Z,91.80
2019-04-03T11:54:52.815Z,91.20
2019-04-03T11:57:20.159Z,91.00
2019-04-03T11:59:47.893Z,90.70
2019-04-03T12:02:17.435Z,90.80
2019-04-03T12:04:48.082Z,91.40
2019-04-03T12:07:15.417Z,91.10
2019-04-03T12:09:42.833Z,89.90
2019-04-03T12:12:10.872Z,90.20
2019-04-03T12:14:41.255Z,90.20
2019-04-03T12:17:29.297Z,89.10
2019-04-03T12:20:17.272Z,88.90
2019-04-03T12:22:44.894Z,88.90
2019-04-03T12:25:12.169Z,89.40
2019-04-03T12:27:40.930Z,87.30
2019-04-03T12:30:08.550Z,88.00
2019-04-03T12:32:43.478Z,87.00
2019-04-03T12:35:09.796Z,88.00
2019-04-03T12:37:37.378Z,87.50
2019-04-03T12:40:05.519Z,86.70
2019-04-03T12:42:35.718Z,87.20
2019-04-03T12:45:24.239Z,86.80
2019-04-03T12:48:11.248Z,87.20
2019-04-03T12:50:40.106Z,86.20
2019-04-03T12:53:07.494Z,85.90
2019-04-03T12:55:34.949Z,86.00
2019-04-03T12:58:05.029Z,87.00
2019-04-03T13:00:31.848Z,85.90
2019-04-03T13:02:59.155Z,87.00
2019-04-03T13:05:26.595Z,86.70
2019-04-03T13:07:55.672Z,83.10
2019-04-03T13:10:23.356Z,85.30
2019-04-03T13:12:50.836Z,84.80
2019-04-03T13:15:21.660Z,84.80
2019-04-03T13:18:08.764Z,84.70
2019-04-03T13:20:37.456Z,84.40
2019-04-03T13:25:54.530Z,84.40
2019-04-03T13:28:22.226Z,82.10
2019-04-03T13:30:49.833Z,80.60
2019-04-03T13:33:17.896Z,77.90
2019-04-03T13:35:47.225Z,79.80
2019-04-03T13:38:16.781Z,79.00
2019-04-03T13:40:44.076Z,79.80
2019-04-03T13:43:30.953Z,77.00
2019-04-03T13:45:58.269Z,79.40
2019-04-03T13:48:28.591Z,79.80
2019-04-03T13:50:57.425Z,76.30
2019-04-03T13:53:28.762Z,78.00
2019-04-03T13:55:56.248Z,75.90
2019-04-03T13:58:23.542Z,77.80
2019-04-03T14:00:58.970Z,79.70
2019-04-03T14:03:20.326Z,78.50
2019-04-03T14:05:47.907Z,76.00
2019-04-03T14:08:21.004Z,79.10
2019-04-03T14:11:08.380Z,74.20
2019-04-03T14:13:36.087Z,75.60
2019-04-03T14:16:03.788Z,76.50
2019-04-03T14:18:31.186Z,77.80
2019-04-03T14:20:59.045Z,78.20
2019-04-03T14:23:28.043Z,78.60
2019-04-03T14:26:04.108Z,76.50
2019-04-03T14:28:26.616Z,78.50
2019-04-03T14:30:54.194Z,78.50
2019-04-03T14:33:22.986Z,80.00
2019-04-03T14:35:53.953Z,80.10
2019-04-03T14:38:21.723Z,80.00
2019-04-03T14:40:52.046Z,81.60
2019-04-03T14:43:21.930Z,80.90
2019-04-03T14:45:48.525Z,81.60
2019-04-03T14:48:16.100Z,80.60
2019-04-03T14:50:43.671Z,81.10
2019-04-03T14:53:11.592Z,81.80
2019-04-03T14:55:47.103Z,82.30
2019-04-03T14:58:29.950Z,81.60
2019-04-03T15:01:20.579Z,80.60
2019-04-03T15:04:01.741Z,80.60
2019-04-03T15:06:31.065Z,82.90
2019-04-03T15:08:58.395Z,85.50
2019-04-03T15:11:26.673Z,86.30
2019-04-03T15:13:55.426Z,86.90
2019-04-03T15:16:23.234Z,86.30
2019-04-03T15:18:52.510Z,87.30
2019-04-03T15:21:24.384Z,87.50
2019-04-03T15:23:52.356Z,88.40
2019-04-03T15:26:22.216Z,87.80
2019-04-03T15:28:49.131Z,87.60
2019-04-03T15:31:20.136Z,88.00
2019-04-03T15:33:48.114Z,88.80
2019-04-03T15:36:18.282Z,88.90
2019-04-03T15:38:48.087Z,88.90
2019-04-03T15:41:18.558Z,88.30
2019-04-03T15:43:47.045Z,88.20
2019-04-03T15:46:15.433Z,88.80
2019-04-03T15:48:44.557Z,88.00
2019-04-03T15:51:12.026Z,87.80
2019-04-03T15:53:39.414Z,86.60
2019-04-03T15:56:06.845Z,87.50
2019-04-03T15:58:34.410Z,86.00
2019-04-03T16:01:01.728Z,86.50
2019-04-03T16:03:51.186Z,86.20
2019-04-03T16:06:18.927Z,86.90
2019-04-03T16:08:47.890Z,87.40
2019-04-03T16:11:17.181Z,87.70
2019-04-03T16:13:46.889Z,87.70
2019-04-03T16:16:15.350Z,86.50
2019-04-03T16:18:48.328Z,87.50
2019-04-03T16:21:17.662Z,87.00
2019-04-03T16:23:48.121Z,87.40
2019-04-03T16:26:15.878Z,86.30
2019-04-03T16:28:43.455Z,86.00
2019-04-03T16:31:11.561Z,87.20
2019-04-03T16:33:39.003Z,87.60
2019-04-03T16:36:06.905Z,87.40
2019-04-03T16:38:42.549Z,86.60
2019-04-03T16:41:11.604Z,87.00
2019-04-03T16:43:39.230Z,86.60
2019-04-03T16:46:10.221Z,87.60
2019-04-03T16:48:55.618Z,87.20
2019-04-03T16:51:22.991Z,87.00
2019-04-03T16:53:50.583Z,87.20
2019-04-03T16:56:18.968Z,86.80
2019-04-03T16:58:46.508Z,86.00
2019-04-03T17:01:16.329Z,87.10
2019-04-03T17:03:46.549Z,86.90
2019-04-03T17:06:15.885Z,87.30
2019-04-03T17:09:04.802Z,87.00
2019-04-03T17:11:32.186Z,86.90
2019-04-03T17:13:59.474Z,86.60
2019-04-03T17:16:27.410Z,86.10
2019-04-03T17:18:55.019Z,85.50
2019-04-03T17:21:22.686Z,84.30
2019-04-03T17:23:50.093Z,85.60
2019-04-03T17:26:17.759Z,86.10
2019-04-03T17:28:45.608Z,85.40
2019-04-03T17:31:13.214Z,86.30
2019-04-03T17:33:40.523Z,85.80
2019-04-03T17:36:07.999Z,85.90
2019-04-03T17:38:35.792Z,86.80
2019-04-03T17:41:05.056Z,86.40
2019-04-03T17:43:32.608Z,86.70
2019-04-03T17:45:59.934Z,86.50
2019-04-03T17:48:46.683Z,86.50
2019-04-03T17:51:15.857Z,86.40
2019-04-03T17:53:43.162Z,86.90
2019-04-03T17:56:12.344Z,87.40
2019-04-03T17:58:40.015Z,87.40
2019-04-03T18:01:07.303Z,87.70
2019-04-03T18:03:34.614Z,88.00
2019-04-03T18:06:02.037Z,88.10
2019-04-03T18:08:33.135Z,88.50
2019-04-03T18:11:02.522Z,88.60
2019-04-03T18:13:31.827Z,88.70
2019-04-03T18:15:59.630Z,88.90
2019-04-03T18:18:27.023Z,89.00
2019-04-03T18:20:54.370Z,89.10
2019-04-03T18:23:22.262Z,89.40
2019-04-03T18:25:50.010Z,89.30
2019-04-03T18:28:17.491Z,89.50
2019-04-03T18:30:44.755Z,89.30
2019-04-03T18:33:31.510Z,89.50
2019-04-03T18:35:58.793Z,89.80
2019-04-03T18:38:26.090Z,89.80
2019-04-03T18:40:53.452Z,89.80
2019-04-03T18:43:21.989Z,90.00
2019-04-03T18:45:49.776Z,89.50
2019-04-03T18:48:18.947Z,89.70
2019-04-03T18:50:46.615Z,89.70
2019-04-03T18:53:14.928Z,90.50
2019-04-03T18:55:44.733Z,90.80
2019-04-03T18:58:12.381Z,91.40
2019-04-03T19:00:40.214Z,91.70
2019-04-03T19:03:07.720Z,92.30
2019-04-03T19:05:35.042Z,92.90
2019-04-03T19:08:12.415Z,92.90
2019-04-03T19:10:31.860Z,92.70
2019-04-03T19:12:59.337Z,92.90
2019-04-03T19:15:26.680Z,93.30
2019-04-03T19:17:59.839Z,92.70
2019-04-03T19:20:23.654Z,92.50
2019-04-03T19:23:01.928Z,92.70
2019-04-03T19:25:20.362Z,92.80
2019-04-03T19:27:49.780Z,92.40
2019-04-03T19:30:17.018Z,92.20
2019-04-03T19:32:44.494Z,92.40
2019-04-03T19:35:11.910Z,92.30
2019-04-03T19:37:44.764Z,92.20
2019-04-03T19:40:14.136Z,92.50
2019-04-03T19:42:50.700Z,92.50
2019-04-03T19:45:37.528Z,92.60
2019-04-03T19:48:05.092Z,92.40
2019-04-03T19:50:32.582Z,92.60
2019-04-03T19:53:00.083Z,92.90
2019-04-03T19:55:28.480Z,92.70
2019-04-03T19:57:57.481Z,92.50
2019-04-03T20:00:25.000Z,92.40
2019-04-03T20:02:52.276Z,92.60
2019-04-03T20:05:19.698Z,92.70
2019-04-03T20:07:46.980Z,92.90
2019-04-03T20:10:14.303Z,93.00
2019-04-03T20:12:42.018Z,92.50
2019-04-03T20:15:29.195Z,93.00
2019-04-03T20:17:56.743Z,92.70
2019-04-03T20:20:24.241Z,92.80
2019-04-03T20:22:51.547Z,92.90
2019-04-03T20:25:18.852Z,92.90
2019-04-03T20:28:06.358Z,92.60
2019-04-03T20:30:33.974Z,92.30
2019-04-03T20:33:01.451Z,92.70
2019-04-03T20:35:28.878Z,92.50
2019-04-03T20:37:57.137Z,92.80
2019-04-03T20:40:46.484Z,92.50
2019-04-03T20:43:13.975Z,92.50
2019-04-03T20:45:41.272Z,92.10
2019-04-03T20:48:08.587Z,92.80
2019-04-03T20:50:38.064Z,92.50
2019-04-03T20:53:25.259Z,92.40
2019-04-03T20:55:52.986Z,92.50
2019-04-03T20:58:20.369Z,92.30
2019-04-03T21:00:49.855Z,92.60
2019-04-03T21:03:17.185Z,92.60
2019-04-03T21:06:04.267Z,92.50
2019-04-03T21:08:31.838Z,92.70
2019-04-03T21:11:01.964Z,92.40
2019-04-03T21:13:28.752Z,92.40
2019-04-03T21:15:56.149Z,92.60
2019-04-03T21:18:42.919Z,92.60
2019-04-03T21:21:10.204Z,92.40
2019-04-03T21:23:39.103Z,92.60
2019-04-03T21:26:07.376Z,92.60
2019-04-03T21:28:35.141Z,92.80
2019-04-03T21:31:02.414Z,92.60
2019-04-03T21:33:30.753Z,92.60
2019-04-03T21:36:18.394Z,92.60
2019-04-03T21:38:45.930Z,92.30
2019-04-03T21:41:13.362Z,92.80
2019-04-03T21:43:40.667Z,92.60
2019-04-03T21:46:10.878Z,92.40
2019-04-03T21:48:58.029Z,92.90
2019-04-03T21:51:25.606Z,92.80
2019-04-03T21:53:55.948Z,92.80
2019-04-03T21:56:22.467Z,92.60
2019-04-03T21:58:50.257Z,92.30
2019-04-03T22:01:25.909Z,92.80
2019-04-03T22:03:53.326Z,92.50
2019-04-03T22:06:20.779Z,92.50
2019-04-03T22:08:48.169Z,92.80
2019-04-03T22:11:18.296Z,92.80
2019-04-03T22:13:58.856Z,92.90
2019-04-03T22:16:26.471Z,93.00
2019-04-03T22:18:54.832Z,92.90
2019-04-03T22:21:23.100Z,92.80
2019-04-03T22:23:50.443Z,93.10
2019-04-03T22:26:17.715Z,92.90
2019-04-03T22:28:46.489Z,93.10
2019-04-03T22:31:14.126Z,93.00
2019-04-03T22:33:41.410Z,93.30
2019-04-03T22:36:08.738Z,93.20
2019-04-03T22:38:37.167Z,93.20
2019-04-03T22:41:05.041Z,93.20
2019-04-03T22:43:32.317Z,93.50
2019-04-03T22:45:59.659Z,93.30
2019-04-03T22:48:27.682Z,93.30
2019-04-03T22:50:55.125Z,93.20
2019-04-03T22:53:28.191Z,93.30
2019-04-03T22:55:55.462Z,93.20
2019-04-03T22:58:22.878Z,93.20
2019-04-03T23:00:50.347Z,93.40
2019-04-03T23:03:17.602Z,93.10
2019-04-03T23:05:47.715Z,93.40
2019-04-03T23:08:14.245Z,93.30
2019-04-03T23:10:41.678Z,93.20
2019-04-03T23:13:08.943Z,93.30
2019-04-03T23:15:36.234Z,93.20
2019-04-03T23:18:03.666Z,93.60
2019-04-03T23:20:31.305Z,93.30
2019-04-03T23:22:58.807Z,93.40
2019-04-03T23:25:26.069Z,93.30
2019-04-03T23:27:53.357Z,93.50
2019-04-03T23:30:20.655Z,93.70
2019-04-03T23:32:47.934Z,93.80
2019-04-03T23:35:15.432Z,93.70
2019-04-03T23:37:43.114Z,93.30
2019-04-03T23:40:10.418Z,93.40
2019-04-03T23:42:38.330Z,93.30
2019-04-03T23:45:06.563Z,93.30
2019-04-03T23:47:34.002Z,93.30
2019-04-03T23:50:01.278Z,93.40
2019-04-03T23:52:29.981Z,93.30
2019-04-03T23:54:57.955Z,93.10
2019-04-03T23:57:25.678Z,93.30
2019-04-03T23:59:52.986Z,93.60
